Grant, Michigan
Current Conditions -  °F | °C
As of 6:31 AM on Friday 24 Oct 2014 (Local Time) from KFFX Reporting Station
Overcast Overcast  
Wind Chill: 48°   Ceiling: 2400
Heat Index: 48°   Visibility: 10mi
Dew Point: 46°   Wind: 0mph
Humidity: 92%   Direction: NA
Pressure: 30.03"   Gusts: NA
Location:  43.34°N, 85.81°W
Report Text: KFFX 241031Z AUTO 00000KT 10SM OVC024 09/08 A3003 RMK AO2 T00870075
Loading
Personal Weather Stations






























Interactive Weather Map
Tropical Storm Tracking
New forecast layout! Learn more

10-Day Weather Forecast

Advertisements
Track Severe Weather on mobile